Main page
METAR-TAF:

METAR-TAF

Airports :

Carlisle Lake District Airport

Carlisle, England

latitude: 54-56-15N, longitude: 002-48-33W, elevation: 57 m

Current weather observation

The report was made 21 hours and 12 minutes ago, at 16:50 UTC
Wind 4 kt from the Northwest
Temperature 17°C
Humidity 88%
Pressure 1018 hPa
Visibility 10 km or more
Few clouds at a height of 800 ft
Broken clouds at a height of 1100 ft

METAR: EGNC 201650Z 32004KT 9999 FEW008 BKN011 17/15 Q1018

Time: 15:02 (14:02 UTC)

Forecast

The report was made 2 minutes ago, at 14:00 UTC
Forecast valid from 20 at 15 UTC to 20 at 17 UTC
Wind 3 kt from variable directions
Visibility 10 km or more
Few clouds at a height of 1000 ft
Broken clouds at a height of 2500 ft
Probability 30% :
Temporary
from 20 at 15 UTC to 20 at 17 UTC
Visibility: 6000 m
Broken clouds at a height of 1000 ft
light rain

TAF: EGNC 201400Z 2015/2017 VRB03KT 9999 FEW010 BKN025 PROB30 TEMPO 2015/2017 6000 -RA BKN010

Weather observations and forecasts of more than 4000 airports (METAR and TAF reports).

The available stations are represented by yellow and red dots on the map.

Hover mouse over dot to see the name of the station.

Then click to see weather observations and forecasts.

To change the map : click on the green buttons with a black cross to zoom in, on the green button with a dash to zoom out, or on the green arrows for adjacent maps.


METAR-TAF: